sensor_id;sensor_type;location;lat;lon;timestamp;temperature;humidity
17489;DHT22;8861;52.644;4.734;2023-07-20T00:01:10;14.80;99.90
17489;DHT22;8861;52.644;4.734;2023-07-20T00:03:37;14.80;99.90
17489;DHT22;8861;52.644;4.734;2023-07-20T00:06:04;14.80;99.90
17489;DHT22;8861;52.644;4.734;2023-07-20T00:08:32;14.80;99.90
17489;DHT22;8861;52.644;4.734;2023-07-20T00:10:59;14.80;99.90
17489;DHT22;8861;52.644;4.734;2023-07-20T00:13:26;14.80;99.90
17489;DHT22;8861;52.644;4.734;2023-07-20T00:15:53;14.80;99.90
17489;DHT22;8861;52.644;4.734;2023-07-20T00:18:24;14.70;99.90
17489;DHT22;8861;52.644;4.734;2023-07-20T00:20:51;14.70;99.90
17489;DHT22;8861;52.644;4.734;2023-07-20T00:23:19;14.70;99.90
17489;DHT22;8861;52.644;4.734;2023-07-20T00:25:47;14.70;99.90
17489;DHT22;8861;52.644;4.734;2023-07-20T00:28:14;14.70;99.90
17489;DHT22;8861;52.644;4.734;2023-07-20T00:30:41;14.80;99.90
17489;DHT22;8861;52.644;4.734;2023-07-20T00:33:10;14.80;99.90
17489;DHT22;8861;52.644;4.734;2023-07-20T00:35:39;14.90;99.90
17489;DHT22;8861;52.644;4.734;2023-07-20T00:38:06;14.90;99.90
17489;DHT22;8861;52.644;4.734;2023-07-20T00:40:36;14.90;99.90
17489;DHT22;8861;52.644;4.734;2023-07-20T00:43:03;14.90;99.90
17489;DHT22;8861;52.644;4.734;2023-07-20T00:45:31;14.90;99.90
17489;DHT22;8861;52.644;4.734;2023-07-20T00:47:58;14.90;99.90
17489;DHT22;8861;52.644;4.734;2023-07-20T00:50:26;14.90;99.90
17489;DHT22;8861;52.644;4.734;2023-07-20T00:52:56;14.80;99.90
17489;DHT22;8861;52.644;4.734;2023-07-20T00:55:24;14.80;99.90
17489;DHT22;8861;52.644;4.734;2023-07-20T00:57:51;14.70;99.90
17489;DHT22;8861;52.644;4.734;2023-07-20T01:00:19;14.60;99.90
17489;DHT22;8861;52.644;4.734;2023-07-20T01:02:46;14.60;99.90
17489;DHT22;8861;52.644;4.734;2023-07-20T01:05:13;14.50;99.90
17489;DHT22;8861;52.644;4.734;2023-07-20T01:07:49;14.50;99.90
17489;DHT22;8861;52.644;4.734;2023-07-20T01:10:25;14.40;99.90
17489;DHT22;8861;52.644;4.734;2023-07-20T01:12:55;14.40;99.90
17489;DHT22;8861;52.644;4.734;2023-07-20T01:15:23;14.40;99.90
17489;DHT22;8861;52.644;4.734;2023-07-20T01:17:50;14.30;99.90
17489;DHT22;8861;52.644;4.734;2023-07-20T01:20:20;14.30;99.90
17489;DHT22;8861;52.644;4.734;2023-07-20T01:26:11;14.30;99.90
17489;DHT22;8861;52.644;4.734;2023-07-20T01:29:06;14.20;99.90
17489;DHT22;8861;52.644;4.734;2023-07-20T01:31:41;14.20;99.90
17489;DHT22;8861;52.644;4.734;2023-07-20T01:34:10;14.10;99.90
17489;DHT22;8861;52.644;4.734;2023-07-20T01:36:38;14.20;99.90
17489;DHT22;8861;52.644;4.734;2023-07-20T01:39:06;14.20;99.90
17489;DHT22;8861;52.644;4.734;2023-07-20T01:41:35;14.10;99.90
17489;DHT22;8861;52.644;4.734;2023-07-20T01:44:03;14.10;99.90
17489;DHT22;8861;52.644;4.734;2023-07-20T01:46:30;14.10;99.90
17489;DHT22;8861;52.644;4.734;2023-07-20T01:48:59;14.10;99.90
17489;DHT22;8861;52.644;4.734;2023-07-20T01:51:26;14.10;99.90
17489;DHT22;8861;52.644;4.734;2023-07-20T01:53:53;14.10;99.90
17489;DHT22;8861;52.644;4.734;2023-07-20T01:56:20;14.10;99.90
17489;DHT22;8861;52.644;4.734;2023-07-20T01:58:47;14.10;99.90
17489;DHT22;8861;52.644;4.734;2023-07-20T02:01:14;14.10;99.90
17489;DHT22;8861;52.644;4.734;2023-07-20T02:03:41;14.10;99.90
17489;DHT22;8861;52.644;4.734;2023-07-20T02:06:10;14.00;99.90
17489;DHT22;8861;52.644;4.734;2023-07-20T02:08:37;14.00;99.90
17489;DHT22;8861;52.644;4.734;2023-07-20T02:11:04;14.00;99.90
17489;DHT22;8861;52.644;4.734;2023-07-20T02:13:31;13.90;99.90
17489;DHT22;8861;52.644;4.734;2023-07-20T02:15:58;13.80;99.90
17489;DHT22;8861;52.644;4.734;2023-07-20T02:18:25;13.80;99.90
17489;DHT22;8861;52.644;4.734;2023-07-20T02:20:53;13.80;99.90
17489;DHT22;8861;52.644;4.734;2023-07-20T02:23:21;13.70;99.90
17489;DHT22;8861;52.644;4.734;2023-07-20T02:25:48;13.60;99.90
17489;DHT22;8861;52.644;4.734;2023-07-20T02:28:15;13.60;99.90
17489;DHT22;8861;52.644;4.734;2023-07-20T02:30:42;13.60;99.90
17489;DHT22;8861;52.644;4.734;2023-07-20T02:33:09;13.60;99.90
17489;DHT22;8861;52.644;4.734;2023-07-20T02:35:36;13.60;99.90
17489;DHT22;8861;52.644;4.734;2023-07-20T02:38:03;13.50;99.90
17489;DHT22;8861;52.644;4.734;2023-07-20T02:40:33;13.50;99.90
17489;DHT22;8861;52.644;4.734;2023-07-20T02:43:00;13.50;99.90
17489;DHT22;8861;52.644;4.734;2023-07-20T02:45:27;13.40;99.90
17489;DHT22;8861;52.644;4.734;2023-07-20T02:47:54;13.40;99.90
17489;DHT22;8861;52.644;4.734;2023-07-20T02:50:22;13.40;99.90
17489;DHT22;8861;52.644;4.734;2023-07-20T02:52:49;13.40;99.90
17489;DHT22;8861;52.644;4.734;2023-07-20T02:55:16;13.40;99.90
17489;DHT22;8861;52.644;4.734;2023-07-20T02:57:45;13.30;99.90
17489;DHT22;8861;52.644;4.734;2023-07-20T03:00:13;13.30;99.90
17489;DHT22;8861;52.644;4.734;2023-07-20T03:02:42;13.30;99.90
17489;DHT22;8861;52.644;4.734;2023-07-20T03:05:09;13.30;99.90
17489;DHT22;8861;52.644;4.734;2023-07-20T03:07:36;13.30;99.90
17489;DHT22;8861;52.644;4.734;2023-07-20T03:10:04;13.30;99.90
17489;DHT22;8861;52.644;4.734;2023-07-20T03:12:32;13.30;99.90
17489;DHT22;8861;52.644;4.734;2023-07-20T03:15:01;13.30;99.90
17489;DHT22;8861;52.644;4.734;2023-07-20T03:17:28;13.20;99.90
17489;DHT22;8861;52.644;4.734;2023-07-20T03:19:55;13.20;99.90
17489;DHT22;8861;52.644;4.734;2023-07-20T03:22:23;13.20;99.90
17489;DHT22;8861;52.644;4.734;2023-07-20T03:24:50;13.20;99.90
17489;DHT22;8861;52.644;4.734;2023-07-20T03:27:18;13.20;99.90
17489;DHT22;8861;52.644;4.734;2023-07-20T03:29:45;13.20;99.90
17489;DHT22;8861;52.644;4.734;2023-07-20T03:32:13;13.20;99.90
17489;DHT22;8861;52.644;4.734;2023-07-20T03:34:40;13.20;99.90
17489;DHT22;8861;52.644;4.734;2023-07-20T03:37:07;13.10;99.90
17489;DHT22;8861;52.644;4.734;2023-07-20T03:39:34;13.10;99.90
17489;DHT22;8861;52.644;4.734;2023-07-20T03:42:02;13.10;99.90
17489;DHT22;8861;52.644;4.734;2023-07-20T03:44:29;13.10;99.90
17489;DHT22;8861;52.644;4.734;2023-07-20T03:46:56;13.00;99.90
17489;DHT22;8861;52.644;4.734;2023-07-20T03:49:24;13.10;99.90
17489;DHT22;8861;52.644;4.734;2023-07-20T03:51:51;13.00;99.90
17489;DHT22;8861;52.644;4.734;2023-07-20T03:54:18;13.00;99.90
17489;DHT22;8861;52.644;4.734;2023-07-20T03:56:45;13.00;99.90
17489;DHT22;8861;52.644;4.734;2023-07-20T03:59:12;13.00;99.90
17489;DHT22;8861;52.644;4.734;2023-07-20T04:01:39;13.00;99.90
17489;DHT22;8861;52.644;4.734;2023-07-20T04:04:07;13.00;99.90
17489;DHT22;8861;52.644;4.734;2023-07-20T04:06:35;12.90;99.90
17489;DHT22;8861;52.644;4.734;2023-07-20T04:09:03;13.00;99.90
17489;DHT22;8861;52.644;4.734;2023-07-20T04:11:31;12.90;99.90
17489;DHT22;8861;52.644;4.734;2023-07-20T04:13:58;12.90;99.90
17489;DHT22;8861;52.644;4.734;2023-07-20T04:16:25;12.90;99.90
17489;DHT22;8861;52.644;4.734;2023-07-20T04:18:54;13.00;99.90
17489;DHT22;8861;52.644;4.734;2023-07-20T04:21:22;13.00;99.90
17489;DHT22;8861;52.644;4.734;2023-07-20T04:23:50;13.00;99.90
17489;DHT22;8861;52.644;4.734;2023-07-20T04:26:17;13.00;99.90
17489;DHT22;8861;52.644;4.734;2023-07-20T04:28:44;13.00;99.90
17489;DHT22;8861;52.644;4.734;2023-07-20T04:31:12;13.00;99.90
17489;DHT22;8861;52.644;4.734;2023-07-20T04:33:39;13.00;99.90
17489;DHT22;8861;52.644;4.734;2023-07-20T04:36:07;13.10;99.90
17489;DHT22;8861;52.644;4.734;2023-07-20T04:38:35;13.10;99.90
17489;DHT22;8861;52.644;4.734;2023-07-20T04:41:03;13.20;99.90
17489;DHT22;8861;52.644;4.734;2023-07-20T04:43:30;13.30;99.90
17489;DHT22;8861;52.644;4.734;2023-07-20T04:45:57;13.30;99.90
17489;DHT22;8861;52.644;4.734;2023-07-20T04:48:24;13.30;99.90
17489;DHT22;8861;52.644;4.734;2023-07-20T04:50:51;13.40;99.90
17489;DHT22;8861;52.644;4.734;2023-07-20T04:53:18;13.40;99.90
17489;DHT22;8861;52.644;4.734;2023-07-20T04:55:48;13.50;99.90
17489;DHT22;8861;52.644;4.734;2023-07-20T04:58:19;13.50;99.90
17489;DHT22;8861;52.644;4.734;2023-07-20T05:00:47;13.50;99.90
17489;DHT22;8861;52.644;4.734;2023-07-20T05:03:14;13.60;99.90
17489;DHT22;8861;52.644;4.734;2023-07-20T05:05:41;13.70;99.90
17489;DHT22;8861;52.644;4.734;2023-07-20T05:08:08;13.70;99.90
17489;DHT22;8861;52.644;4.734;2023-07-20T05:10:35;13.80;99.90
17489;DHT22;8861;52.644;4.734;2023-07-20T05:13:02;13.80;99.90
17489;DHT22;8861;52.644;4.734;2023-07-20T05:15:32;13.80;99.90
17489;DHT22;8861;52.644;4.734;2023-07-20T05:17:59;13.90;99.90
17489;DHT22;8861;52.644;4.734;2023-07-20T05:20:26;13.80;99.90
17489;DHT22;8861;52.644;4.734;2023-07-20T05:22:53;13.90;99.90
17489;DHT22;8861;52.644;4.734;2023-07-20T05:25:21;13.90;99.90
17489;DHT22;8861;52.644;4.734;2023-07-20T05:27:48;14.00;99.90
17489;DHT22;8861;52.644;4.734;2023-07-20T05:30:16;14.10;99.90
17489;DHT22;8861;52.644;4.734;2023-07-20T05:32:44;14.20;99.90
17489;DHT22;8861;52.644;4.734;2023-07-20T05:35:16;14.20;99.90
17489;DHT22;8861;52.644;4.734;2023-07-20T05:37:43;14.30;99.90
17489;DHT22;8861;52.644;4.734;2023-07-20T05:40:11;14.40;99.90
17489;DHT22;8861;52.644;4.734;2023-07-20T05:42:39;14.50;99.90
17489;DHT22;8861;52.644;4.734;2023-07-20T05:45:06;14.50;99.90
17489;DHT22;8861;52.644;4.734;2023-07-20T05:47:34;14.60;99.90
17489;DHT22;8861;52.644;4.734;2023-07-20T05:50:02;14.60;99.90
17489;DHT22;8861;52.644;4.734;2023-07-20T05:52:29;14.70;99.90
17489;DHT22;8861;52.644;4.734;2023-07-20T05:54:56;14.70;99.90
17489;DHT22;8861;52.644;4.734;2023-07-20T05:57:23;14.80;99.90
17489;DHT22;8861;52.644;4.734;2023-07-20T05:59:51;14.90;99.90
17489;DHT22;8861;52.644;4.734;2023-07-20T06:02:18;15.00;99.90
17489;DHT22;8861;52.644;4.734;2023-07-20T06:04:45;15.10;99.90
17489;DHT22;8861;52.644;4.734;2023-07-20T06:07:13;15.10;99.90
17489;DHT22;8861;52.644;4.734;2023-07-20T06:09:40;15.20;99.90
17489;DHT22;8861;52.644;4.734;2023-07-20T06:12:08;15.30;99.90
17489;DHT22;8861;52.644;4.734;2023-07-20T06:14:36;15.40;99.90
17489;DHT22;8861;52.644;4.734;2023-07-20T06:17:04;15.50;99.90
17489;DHT22;8861;52.644;4.734;2023-07-20T06:19:31;15.50;99.90
17489;DHT22;8861;52.644;4.734;2023-07-20T06:21:58;15.60;99.90
17489;DHT22;8861;52.644;4.734;2023-07-20T06:24:27;15.60;99.90
17489;DHT22;8861;52.644;4.734;2023-07-20T06:26:53;15.60;99.90
17489;DHT22;8861;52.644;4.734;2023-07-20T06:29:21;15.70;99.90
17489;DHT22;8861;52.644;4.734;2023-07-20T06:31:48;15.70;99.90
17489;DHT22;8861;52.644;4.734;2023-07-20T06:34:15;15.80;99.90
17489;DHT22;8861;52.644;4.734;2023-07-20T06:36:42;15.80;99.90
17489;DHT22;8861;52.644;4.734;2023-07-20T06:39:09;15.90;99.90
17489;DHT22;8861;52.644;4.734;2023-07-20T06:41:37;15.90;99.90
17489;DHT22;8861;52.644;4.734;2023-07-20T06:44:04;16.00;99.90
17489;DHT22;8861;52.644;4.734;2023-07-20T06:46:31;16.00;99.90
17489;DHT22;8861;52.644;4.734;2023-07-20T06:48:58;16.10;99.90
17489;DHT22;8861;52.644;4.734;2023-07-20T06:51:25;16.10;99.90
17489;DHT22;8861;52.644;4.734;2023-07-20T06:53:52;16.20;99.90
17489;DHT22;8861;52.644;4.734;2023-07-20T06:56:19;16.40;99.90
17489;DHT22;8861;52.644;4.734;2023-07-20T06:58:48;16.50;99.90
17489;DHT22;8861;52.644;4.734;2023-07-20T07:01:15;16.70;99.90
17489;DHT22;8861;52.644;4.734;2023-07-20T07:03:42;16.80;99.90
17489;DHT22;8861;52.644;4.734;2023-07-20T07:06:09;16.80;99.90
17489;DHT22;8861;52.644;4.734;2023-07-20T07:08:37;16.80;99.90
17489;DHT22;8861;52.644;4.734;2023-07-20T07:11:04;16.80;99.90
17489;DHT22;8861;52.644;4.734;2023-07-20T07:13:31;16.80;99.90
17489;DHT22;8861;52.644;4.734;2023-07-20T07:16:00;16.80;99.90
17489;DHT22;8861;52.644;4.734;2023-07-20T07:18:27;16.80;99.90
17489;DHT22;8861;52.644;4.734;2023-07-20T07:20:54;16.80;99.90
17489;DHT22;8861;52.644;4.734;2023-07-20T07:23:21;16.90;99.90
17489;DHT22;8861;52.644;4.734;2023-07-20T07:25:48;16.90;99.90
17489;DHT22;8861;52.644;4.734;2023-07-20T07:28:15;17.00;99.90
17489;DHT22;8861;52.644;4.734;2023-07-20T07:30:42;17.10;99.90
17489;DHT22;8861;52.644;4.734;2023-07-20T07:33:10;17.30;99.90
17489;DHT22;8861;52.644;4.734;2023-07-20T07:35:38;17.60;99.90
17489;DHT22;8861;52.644;4.734;2023-07-20T07:38:05;18.10;99.90
17489;DHT22;8861;52.644;4.734;2023-07-20T07:40:32;18.50;99.90
17489;DHT22;8861;52.644;4.734;2023-07-20T07:42:59;18.80;99.90
17489;DHT22;8861;52.644;4.734;2023-07-20T07:45:26;19.00;99.90
17489;DHT22;8861;52.644;4.734;2023-07-20T07:47:53;19.00;99.90
17489;DHT22;8861;52.644;4.734;2023-07-20T07:50:22;18.80;99.90
17489;DHT22;8861;52.644;4.734;2023-07-20T07:52:49;18.70;99.90
17489;DHT22;8861;52.644;4.734;2023-07-20T07:55:16;18.60;99.90
17489;DHT22;8861;52.644;4.734;2023-07-20T07:57:43;18.40;99.90
17489;DHT22;8861;52.644;4.734;2023-07-20T08:00:11;18.30;99.90
17489;DHT22;8861;52.644;4.734;2023-07-20T08:02:40;18.30;99.90
17489;DHT22;8861;52.644;4.734;2023-07-20T08:05:08;18.30;99.90
17489;DHT22;8861;52.644;4.734;2023-07-20T08:07:37;18.20;99.90
17489;DHT22;8861;52.644;4.734;2023-07-20T08:10:06;18.20;99.90
17489;DHT22;8861;52.644;4.734;2023-07-20T08:12:34;18.00;99.90
17489;DHT22;8861;52.644;4.734;2023-07-20T08:15:01;18.00;99.90
17489;DHT22;8861;52.644;4.734;2023-07-20T08:17:28;18.00;99.90
17489;DHT22;8861;52.644;4.734;2023-07-20T08:19:55;18.10;99.90
17489;DHT22;8861;52.644;4.734;2023-07-20T08:22:22;18.10;99.90
17489;DHT22;8861;52.644;4.734;2023-07-20T08:24:50;18.20;99.90
17489;DHT22;8861;52.644;4.734;2023-07-20T08:27:17;18.40;99.90
17489;DHT22;8861;52.644;4.734;2023-07-20T08:29:44;18.50;99.90
17489;DHT22;8861;52.644;4.734;2023-07-20T08:32:11;18.60;99.90
17489;DHT22;8861;52.644;4.734;2023-07-20T08:34:39;18.60;99.90
17489;DHT22;8861;52.644;4.734;2023-07-20T08:37:06;18.70;99.90
17489;DHT22;8861;52.644;4.734;2023-07-20T08:39:35;18.70;99.90
17489;DHT22;8861;52.644;4.734;2023-07-20T08:42:05;18.60;99.90
17489;DHT22;8861;52.644;4.734;2023-07-20T08:44:33;18.60;99.90
17489;DHT22;8861;52.644;4.734;2023-07-20T08:47:01;18.70;99.90
17489;DHT22;8861;52.644;4.734;2023-07-20T08:49:30;18.80;99.90
17489;DHT22;8861;52.644;4.734;2023-07-20T08:51:58;19.00;99.90
17489;DHT22;8861;52.644;4.734;2023-07-20T08:54:29;19.10;99.90
17489;DHT22;8861;52.644;4.734;2023-07-20T08:57:01;19.10;99.90
17489;DHT22;8861;52.644;4.734;2023-07-20T08:59:30;19.10;99.90
17489;DHT22;8861;52.644;4.734;2023-07-20T09:01:58;19.10;99.90
17489;DHT22;8861;52.644;4.734;2023-07-20T09:04:26;19.20;99.90
17489;DHT22;8861;52.644;4.734;2023-07-20T09:06:53;19.30;99.90
17489;DHT22;8861;52.644;4.734;2023-07-20T09:09:20;19.30;99.90
17489;DHT22;8861;52.644;4.734;2023-07-20T09:11:48;19.40;99.90
17489;DHT22;8861;52.644;4.734;2023-07-20T09:14:15;19.40;99.90
17489;DHT22;8861;52.644;4.734;2023-07-20T09:16:52;19.40;99.90
17489;DHT22;8861;52.644;4.734;2023-07-20T09:19:20;19.30;99.90
17489;DHT22;8861;52.644;4.734;2023-07-20T09:21:48;19.30;99.90
17489;DHT22;8861;52.644;4.734;2023-07-20T09:24:18;19.30;99.90
17489;DHT22;8861;52.644;4.734;2023-07-20T09:26:46;19.20;99.90
17489;DHT22;8861;52.644;4.734;2023-07-20T09:29:18;18.90;99.90
17489;DHT22;8861;52.644;4.734;2023-07-20T09:31:58;18.70;99.90
17489;DHT22;8861;52.644;4.734;2023-07-20T09:34:27;18.60;99.90
17489;DHT22;8861;52.644;4.734;2023-07-20T09:36:55;18.60;99.90
17489;DHT22;8861;52.644;4.734;2023-07-20T09:39:22;18.60;99.90
17489;DHT22;8861;52.644;4.734;2023-07-20T09:41:51;18.80;99.90
17489;DHT22;8861;52.644;4.734;2023-07-20T09:44:18;18.90;99.90
17489;DHT22;8861;52.644;4.734;2023-07-20T09:46:46;18.90;99.90
17489;DHT22;8861;52.644;4.734;2023-07-20T09:49:17;18.90;99.90
17489;DHT22;8861;52.644;4.734;2023-07-20T09:51:45;19.00;99.90
17489;DHT22;8861;52.644;4.734;2023-07-20T09:54:13;19.00;99.90
17489;DHT22;8861;52.644;4.734;2023-07-20T09:56:42;18.90;99.90
17489;DHT22;8861;52.644;4.734;2023-07-20T09:59:09;18.80;99.90
17489;DHT22;8861;52.644;4.734;2023-07-20T10:01:37;18.80;99.90
17489;DHT22;8861;52.644;4.734;2023-07-20T10:04:09;19.00;99.90
17489;DHT22;8861;52.644;4.734;2023-07-20T10:06:41;19.20;99.90
17489;DHT22;8861;52.644;4.734;2023-07-20T10:09:10;19.10;99.90
17489;DHT22;8861;52.644;4.734;2023-07-20T10:11:41;18.90;99.90
17489;DHT22;8861;52.644;4.734;2023-07-20T10:14:12;18.80;99.90
17489;DHT22;8861;52.644;4.734;2023-07-20T10:16:46;18.70;99.90
17489;DHT22;8861;52.644;4.734;2023-07-20T10:19:22;18.80;99.90
17489;DHT22;8861;52.644;4.734;2023-07-20T10:22:00;18.90;99.90
17489;DHT22;8861;52.644;4.734;2023-07-20T10:24:28;19.10;99.90
17489;DHT22;8861;52.644;4.734;2023-07-20T10:26:55;19.20;99.90
17489;DHT22;8861;52.644;4.734;2023-07-20T10:29:24;19.20;99.90
17489;DHT22;8861;52.644;4.734;2023-07-20T10:31:53;19.20;99.90
17489;DHT22;8861;52.644;4.734;2023-07-20T10:34:21;19.30;99.90
17489;DHT22;8861;52.644;4.734;2023-07-20T10:36:48;19.40;99.90
17489;DHT22;8861;52.644;4.734;2023-07-20T10:39:26;19.40;99.90
17489;DHT22;8861;52.644;4.734;2023-07-20T10:42:00;19.50;99.90
17489;DHT22;8861;52.644;4.734;2023-07-20T10:44:28;19.70;99.90
17489;DHT22;8861;52.644;4.734;2023-07-20T10:46:59;19.70;99.90
17489;DHT22;8861;52.644;4.734;2023-07-20T10:49:26;19.80;99.90
17489;DHT22;8861;52.644;4.734;2023-07-20T10:51:57;19.90;99.90
17489;DHT22;8861;52.644;4.734;2023-07-20T10:54:48;20.10;99.90
17489;DHT22;8861;52.644;4.734;2023-07-20T10:57:27;20.30;99.90
17489;DHT22;8861;52.644;4.734;2023-07-20T11:00:08;20.40;99.90
17489;DHT22;8861;52.644;4.734;2023-07-20T11:02:44;20.30;99.90
17489;DHT22;8861;52.644;4.734;2023-07-20T11:05:34;20.40;99.90
17489;DHT22;8861;52.644;4.734;2023-07-20T11:08:04;20.60;99.90
17489;DHT22;8861;52.644;4.734;2023-07-20T11:10:32;20.80;99.90
17489;DHT22;8861;52.644;4.734;2023-07-20T11:13:19;20.90;99.90
17489;DHT22;8861;52.644;4.734;2023-07-20T11:15:48;21.00;99.90
17489;DHT22;8861;52.644;4.734;2023-07-20T11:18:15;21.10;99.90
17489;DHT22;8861;52.644;4.734;2023-07-20T11:20:42;21.10;99.90
17489;DHT22;8861;52.644;4.734;2023-07-20T11:23:09;21.20;99.90
17489;DHT22;8861;52.644;4.734;2023-07-20T11:25:39;21.10;99.90
17489;DHT22;8861;52.644;4.734;2023-07-20T11:28:09;21.10;99.90
17489;DHT22;8861;52.644;4.734;2023-07-20T11:30:37;21.20;99.90
17489;DHT22;8861;52.644;4.734;2023-07-20T11:33:05;21.20;99.90
17489;DHT22;8861;52.644;4.734;2023-07-20T11:35:35;21.20;99.90
17489;DHT22;8861;52.644;4.734;2023-07-20T11:38:04;21.20;99.90
17489;DHT22;8861;52.644;4.734;2023-07-20T11:40:32;21.10;99.90
17489;DHT22;8861;52.644;4.734;2023-07-20T11:43:01;21.10;99.90
17489;DHT22;8861;52.644;4.734;2023-07-20T11:45:28;21.10;99.90
17489;DHT22;8861;52.644;4.734;2023-07-20T11:47:59;21.10;99.90
17489;DHT22;8861;52.644;4.734;2023-07-20T11:50:26;21.10;99.90
17489;DHT22;8861;52.644;4.734;2023-07-20T11:52:53;21.10;99.90
17489;DHT22;8861;52.644;4.734;2023-07-20T11:55:20;21.20;99.90
17489;DHT22;8861;52.644;4.734;2023-07-20T11:58:03;21.10;99.90
17489;DHT22;8861;52.644;4.734;2023-07-20T12:00:30;21.20;99.90
17489;DHT22;8861;52.644;4.734;2023-07-20T12:02:57;21.20;99.90
17489;DHT22;8861;52.644;4.734;2023-07-20T12:05:24;21.20;99.90
17489;DHT22;8861;52.644;4.734;2023-07-20T12:07:52;21.70;99.90
17489;DHT22;8861;52.644;4.734;2023-07-20T12:10:24;22.30;99.90
17489;DHT22;8861;52.644;4.734;2023-07-20T12:12:52;22.40;99.90
17489;DHT22;8861;52.644;4.734;2023-07-20T12:15:23;23.20;99.90
17489;DHT22;8861;52.644;4.734;2023-07-20T12:17:52;24.30;99.90
17489;DHT22;8861;52.644;4.734;2023-07-20T12:20:27;25.10;99.90
17489;DHT22;8861;52.644;4.734;2023-07-20T12:22:57;25.40;99.90
17489;DHT22;8861;52.644;4.734;2023-07-20T12:25:33;25.90;99.90
17489;DHT22;8861;52.644;4.734;2023-07-20T12:28:02;26.40;99.90
17489;DHT22;8861;52.644;4.734;2023-07-20T12:30:32;26.90;99.90
17489;DHT22;8861;52.644;4.734;2023-07-20T12:32:59;27.20;99.90
17489;DHT22;8861;52.644;4.734;2023-07-20T12:35:27;27.60;99.90
17489;DHT22;8861;52.644;4.734;2023-07-20T12:37:54;27.50;99.90
17489;DHT22;8861;52.644;4.734;2023-07-20T12:40:21;27.30;99.90
17489;DHT22;8861;52.644;4.734;2023-07-20T12:42:48;27.10;99.90
17489;DHT22;8861;52.644;4.734;2023-07-20T12:45:15;26.70;99.90
17489;DHT22;8861;52.644;4.734;2023-07-20T12:47:44;26.10;99.90
17489;DHT22;8861;52.644;4.734;2023-07-20T12:50:11;25.40;99.90
17489;DHT22;8861;52.644;4.734;2023-07-20T12:52:39;24.90;99.90
17489;DHT22;8861;52.644;4.734;2023-07-20T12:55:08;24.30;99.90
17489;DHT22;8861;52.644;4.734;2023-07-20T12:57:35;23.90;99.90
17489;DHT22;8861;52.644;4.734;2023-07-20T13:00:04;23.40;99.90
17489;DHT22;8861;52.644;4.734;2023-07-20T13:02:32;23.00;99.90
17489;DHT22;8861;52.644;4.734;2023-07-20T13:05:00;22.70;99.90
17489;DHT22;8861;52.644;4.734;2023-07-20T13:07:31;22.50;99.90
17489;DHT22;8861;52.644;4.734;2023-07-20T13:09:58;22.20;99.90
17489;DHT22;8861;52.644;4.734;2023-07-20T13:12:26;22.00;99.90
17489;DHT22;8861;52.644;4.734;2023-07-20T13:14:54;22.00;99.90
17489;DHT22;8861;52.644;4.734;2023-07-20T13:17:21;21.90;99.90
17489;DHT22;8861;52.644;4.734;2023-07-20T13:19:48;21.90;99.90
17489;DHT22;8861;52.644;4.734;2023-07-20T13:22:17;21.80;99.90
17489;DHT22;8861;52.644;4.734;2023-07-20T13:24:45;21.70;99.90
17489;DHT22;8861;52.644;4.734;2023-07-20T13:27:14;21.70;99.90
17489;DHT22;8861;52.644;4.734;2023-07-20T13:29:41;21.70;99.90
17489;DHT22;8861;52.644;4.734;2023-07-20T13:32:09;21.80;99.90
17489;DHT22;8861;52.644;4.734;2023-07-20T13:34:36;22.00;99.90
17489;DHT22;8861;52.644;4.734;2023-07-20T13:37:03;22.20;99.90
17489;DHT22;8861;52.644;4.734;2023-07-20T13:39:32;22.40;99.90
17489;DHT22;8861;52.644;4.734;2023-07-20T13:41:59;22.60;99.90
17489;DHT22;8861;52.644;4.734;2023-07-20T13:44:27;22.70;99.90
17489;DHT22;8861;52.644;4.734;2023-07-20T13:46:55;22.80;99.90
17489;DHT22;8861;52.644;4.734;2023-07-20T13:49:23;22.80;99.90
17489;DHT22;8861;52.644;4.734;2023-07-20T13:51:50;22.80;99.90
17489;DHT22;8861;52.644;4.734;2023-07-20T13:54:17;22.80;99.90
17489;DHT22;8861;52.644;4.734;2023-07-20T13:56:45;22.80;99.90
17489;DHT22;8861;52.644;4.734;2023-07-20T13:59:12;22.70;99.90
17489;DHT22;8861;52.644;4.734;2023-07-20T14:01:39;22.50;99.90
17489;DHT22;8861;52.644;4.734;2023-07-20T14:04:06;22.40;99.90
17489;DHT22;8861;52.644;4.734;2023-07-20T14:06:33;22.40;99.90
17489;DHT22;8861;52.644;4.734;2023-07-20T14:09:00;22.50;99.90
17489;DHT22;8861;52.644;4.734;2023-07-20T14:11:29;22.70;99.90
17489;DHT22;8861;52.644;4.734;2023-07-20T14:13:57;23.10;99.90
17489;DHT22;8861;52.644;4.734;2023-07-20T14:16:25;23.30;99.90
17489;DHT22;8861;52.644;4.734;2023-07-20T14:18:52;23.80;99.90
17489;DHT22;8861;52.644;4.734;2023-07-20T14:21:20;24.50;99.90
17489;DHT22;8861;52.644;4.734;2023-07-20T14:23:48;25.20;99.90
17489;DHT22;8861;52.644;4.734;2023-07-20T14:26:15;26.00;99.90
17489;DHT22;8861;52.644;4.734;2023-07-20T14:28:42;26.80;99.90
17489;DHT22;8861;52.644;4.734;2023-07-20T14:31:11;27.70;99.90
17489;DHT22;8861;52.644;4.734;2023-07-20T14:33:38;28.90;99.90
17489;DHT22;8861;52.644;4.734;2023-07-20T14:36:05;30.10;99.90
17489;DHT22;8861;52.644;4.734;2023-07-20T14:38:34;31.70;99.90
17489;DHT22;8861;52.644;4.734;2023-07-20T14:41:01;33.40;99.90
17489;DHT22;8861;52.644;4.734;2023-07-20T14:43:28;34.70;99.90
17489;DHT22;8861;52.644;4.734;2023-07-20T14:45:55;35.20;99.90
17489;DHT22;8861;52.644;4.734;2023-07-20T14:48:23;35.30;99.40
17489;DHT22;8861;52.644;4.734;2023-07-20T14:50:50;34.80;98.90
17489;DHT22;8861;52.644;4.734;2023-07-20T14:53:17;34.60;99.00
17489;DHT22;8861;52.644;4.734;2023-07-20T14:55:44;34.70;98.60
17489;DHT22;8861;52.644;4.734;2023-07-20T14:58:11;35.20;97.70
17489;DHT22;8861;52.644;4.734;2023-07-20T15:00:38;35.80;95.70
17489;DHT22;8861;52.644;4.734;2023-07-20T15:03:05;36.40;94.70
17489;DHT22;8861;52.644;4.734;2023-07-20T15:05:36;37.10;93.10
17489;DHT22;8861;52.644;4.734;2023-07-20T15:08:04;37.70;92.00
17489;DHT22;8861;52.644;4.734;2023-07-20T15:10:32;38.00;90.40
17489;DHT22;8861;52.644;4.734;2023-07-20T15:12:59;38.00;89.80
17489;DHT22;8861;52.644;4.734;2023-07-20T15:15:26;38.20;88.80
17489;DHT22;8861;52.644;4.734;2023-07-20T15:17:53;38.70;88.20
17489;DHT22;8861;52.644;4.734;2023-07-20T15:20:20;39.10;86.90
17489;DHT22;8861;52.644;4.734;2023-07-20T15:22:49;39.20;85.50
17489;DHT22;8861;52.644;4.734;2023-07-20T15:25:16;39.20;85.20
17489;DHT22;8861;52.644;4.734;2023-07-20T15:27:43;38.90;84.30
17489;DHT22;8861;52.644;4.734;2023-07-20T15:30:11;38.60;81.30
17489;DHT22;8861;52.644;4.734;2023-07-20T15:32:38;37.30;80.70
17489;DHT22;8861;52.644;4.734;2023-07-20T15:35:06;36.20;83.10
17489;DHT22;8861;52.644;4.734;2023-07-20T15:37:34;35.40;85.20
17489;DHT22;8861;52.644;4.734;2023-07-20T15:40:04;34.80;85.00
17489;DHT22;8861;52.644;4.734;2023-07-20T15:42:32;34.00;86.40
17489;DHT22;8861;52.644;4.734;2023-07-20T15:44:59;32.80;86.10
17489;DHT22;8861;52.644;4.734;2023-07-20T15:47:26;31.40;88.40
17489;DHT22;8861;52.644;4.734;2023-07-20T15:49:53;30.40;90.50
17489;DHT22;8861;52.644;4.734;2023-07-20T15:52:21;29.40;92.00
17489;DHT22;8861;52.644;4.734;2023-07-20T15:54:48;28.60;93.10